createdAt,value
2023-03-10T00:00:47.344Z,5.88
2023-03-10T00:03:13.844Z,6.15
2023-03-10T00:05:40.445Z,6.22
2023-03-10T00:08:07.029Z,6.13
2023-03-10T00:10:33.499Z,5.65
2023-03-10T00:12:59.948Z,5.28
2023-03-10T00:15:26.528Z,5.00
2023-03-10T00:17:55.591Z,6.47
2023-03-10T00:20:22.644Z,5.10
2023-03-10T00:22:49.182Z,7.15
2023-03-10T00:25:15.677Z,7.55
2023-03-10T00:27:42.177Z,4.97
2023-03-10T00:30:09.443Z,6.35
2023-03-10T00:32:36.164Z,6.07
2023-03-10T00:35:02.665Z,9.32
2023-03-10T00:37:29.226Z,5.88
2023-03-10T00:39:55.810Z,5.78
2023-03-10T00:42:22.788Z,4.82
2023-03-10T00:44:49.357Z,4.28
2023-03-10T00:47:15.825Z,5.38
2023-03-10T00:49:42.319Z,6.68
2023-03-10T00:52:08.868Z,4.80
2023-03-10T00:54:35.333Z,5.07
2023-03-10T00:57:02.091Z,5.82
2023-03-10T00:59:32.876Z,5.35
2023-03-10T01:02:07.079Z,5.72
2023-03-10T01:04:33.705Z,5.15
2023-03-10T01:07:00.203Z,4.80
2023-03-10T01:09:26.723Z,6.68
2023-03-10T01:11:53.237Z,7.50
2023-03-10T01:14:19.845Z,6.78
2023-03-10T01:16:46.339Z,6.13
2023-03-10T01:19:12.839Z,5.40
2023-03-10T01:21:39.444Z,4.72
2023-03-10T01:24:05.993Z,4.90
2023-03-10T01:26:32.516Z,4.38
2023-03-10T01:28:59.015Z,6.57
2023-03-10T01:31:25.569Z,5.70
2023-03-10T01:33:52.231Z,5.60
2023-03-10T01:36:21.420Z,4.45
2023-03-10T01:38:48.486Z,4.57
2023-03-10T01:41:15.279Z,4.32
2023-03-10T01:43:42.897Z,5.40
2023-03-10T01:46:42.690Z,4.88
2023-03-10T01:49:37.462Z,5.18
2023-03-10T01:52:16.599Z,4.35
2023-03-10T01:54:42.947Z,5.55
2023-03-10T01:57:09.504Z,4.00
2023-03-10T01:59:36.167Z,3.90
2023-03-10T02:02:02.643Z,4.50
2023-03-10T02:04:36.015Z,4.85
2023-03-10T02:07:03.595Z,4.95
2023-03-10T02:09:30.047Z,4.22
2023-03-10T02:11:56.454Z,4.95
2023-03-10T02:14:22.974Z,3.65
2023-03-10T02:16:49.399Z,4.10
2023-03-10T02:19:25.418Z,4.22
2023-03-10T02:22:00.551Z,4.00
2023-03-10T02:24:33.575Z,6.80
2023-03-10T02:27:02.904Z,6.50
2023-03-10T02:29:58.379Z,5.25
2023-03-10T02:32:25.591Z,3.75
2023-03-10T02:34:52.169Z,4.45
2023-03-10T02:37:23.460Z,4.30
2023-03-10T02:39:49.866Z,6.38
2023-03-10T02:42:16.321Z,4.60
2023-03-10T02:44:43.087Z,4.35
2023-03-10T02:47:09.802Z,6.05
2023-03-10T02:49:36.375Z,5.63
2023-03-10T02:52:03.405Z,6.68
2023-03-10T02:54:29.927Z,5.28
2023-03-10T02:56:56.421Z,5.43
2023-03-10T02:59:22.903Z,5.35
2023-03-10T03:01:49.440Z,3.55
2023-03-10T03:04:16.186Z,3.33
2023-03-10T03:06:42.721Z,3.53
2023-03-10T03:09:09.250Z,3.63
2023-03-10T03:11:35.832Z,4.07
2023-03-10T03:14:02.330Z,4.45
2023-03-10T03:16:28.854Z,3.90
2023-03-10T03:18:55.356Z,4.32
2023-03-10T03:21:21.865Z,4.18
2023-03-10T03:23:48.329Z,4.10
2023-03-10T03:26:20.487Z,4.10
2023-03-10T03:28:47.104Z,3.38
2023-03-10T03:31:18.138Z,3.70
2023-03-10T03:33:44.760Z,4.03
2023-03-10T03:36:11.285Z,4.03
2023-03-10T03:38:37.802Z,4.68
2023-03-10T03:41:04.898Z,5.15
2023-03-10T03:43:31.370Z,5.60
2023-03-10T03:45:57.972Z,4.28
2023-03-10T03:48:24.567Z,4.18
2023-03-10T03:50:51.171Z,5.10
2023-03-10T03:53:17.671Z,4.30
2023-03-10T03:55:44.254Z,4.32
2023-03-10T03:58:10.722Z,4.95
2023-03-10T04:00:38.571Z,5.13
2023-03-10T04:03:05.346Z,5.22
2023-03-10T04:05:31.946Z,5.63
2023-03-10T04:07:58.451Z,4.90
2023-03-10T04:10:27.059Z,4.68
2023-03-10T04:12:53.629Z,5.88
2023-03-10T04:15:20.113Z,5.40
2023-03-10T04:17:46.648Z,5.10
2023-03-10T04:20:14.294Z,5.32
2023-03-10T04:22:40.755Z,5.75
2023-03-10T04:25:07.687Z,4.55
2023-03-10T04:27:34.323Z,4.43
2023-03-10T04:30:00.802Z,4.40
2023-03-10T04:32:27.394Z,4.32
2023-03-10T04:34:53.930Z,4.30
2023-03-10T04:37:21.766Z,4.05
2023-03-10T04:39:48.321Z,4.25
2023-03-10T04:42:14.798Z,4.10
2023-03-10T04:44:41.303Z,4.53
2023-03-10T04:47:07.850Z,4.47
2023-03-10T04:49:34.296Z,5.90
2023-03-10T04:52:00.811Z,4.25
2023-03-10T04:54:27.293Z,4.78
2023-03-10T04:56:53.787Z,5.55
2023-03-10T04:59:21.531Z,5.55
2023-03-10T05:01:48.520Z,4.30
2023-03-10T05:04:15.108Z,4.60
2023-03-10T05:06:41.629Z,6.57
2023-03-10T05:09:08.198Z,5.00
2023-03-10T05:11:34.702Z,4.80
2023-03-10T05:14:01.541Z,4.75
2023-03-10T05:16:28.391Z,4.15
2023-03-10T05:18:54.934Z,4.95
2023-03-10T05:21:21.967Z,4.00
2023-03-10T05:23:49.278Z,3.95
2023-03-10T05:26:15.858Z,3.88
2023-03-10T05:28:42.323Z,3.47
2023-03-10T05:31:10.824Z,4.38
2023-03-10T05:33:37.354Z,4.25
2023-03-10T05:36:05.913Z,5.20
2023-03-10T05:38:32.984Z,4.20
2023-03-10T05:40:59.469Z,4.38
2023-03-10T05:43:25.954Z,4.10
2023-03-10T05:45:56.703Z,3.10
2023-03-10T05:48:23.194Z,2.47
2023-03-10T05:50:59.151Z,3.72
2023-03-10T05:53:25.699Z,2.63
2023-03-10T05:55:53.319Z,2.88
2023-03-10T05:58:20.194Z,2.63
2023-03-10T06:00:46.659Z,3.05
2023-03-10T06:03:13.221Z,2.60
2023-03-10T06:05:39.843Z,3.05
2023-03-10T06:08:06.383Z,2.17
2023-03-10T06:10:32.865Z,2.75
2023-03-10T06:12:59.473Z,1.63
2023-03-10T06:15:25.930Z,2.13
2023-03-10T06:17:52.455Z,1.60
2023-03-10T06:20:19.060Z,2.20
2023-03-10T06:22:45.511Z,2.53
2023-03-10T06:25:12.760Z,1.80
2023-03-10T06:27:39.433Z,2.17
2023-03-10T06:30:06.532Z,2.42
2023-03-10T06:32:34.511Z,1.75
2023-03-10T06:35:01.030Z,1.95
2023-03-10T06:37:28.092Z,2.03
2023-03-10T06:39:54.579Z,2.30
2023-03-10T06:42:21.134Z,2.50
2023-03-10T06:44:49.240Z,1.92
2023-03-10T06:47:15.919Z,2.80
2023-03-10T06:49:42.411Z,2.20
2023-03-10T06:52:08.883Z,1.90
2023-03-10T06:54:35.411Z,2.38
2023-03-10T06:57:01.910Z,2.22
2023-03-10T06:59:31.611Z,1.70
2023-03-10T07:01:58.426Z,2.30
2023-03-10T07:04:25.715Z,2.20
2023-03-10T07:06:52.470Z,1.98
2023-03-10T07:09:18.931Z,2.80
2023-03-10T07:11:45.452Z,2.78
2023-03-10T07:14:12.770Z,2.33
2023-03-10T07:16:39.911Z,2.13
2023-03-10T07:19:06.480Z,2.60
2023-03-10T07:21:32.988Z,2.33
2023-03-10T07:23:59.470Z,3.03
2023-03-10T07:26:26.409Z,2.60
2023-03-10T07:28:54.238Z,2.72
2023-03-10T07:31:20.835Z,3.20
2023-03-10T07:33:47.444Z,4.13
2023-03-10T07:36:15.643Z,4.53
2023-03-10T07:38:42.150Z,7.65
2023-03-10T07:41:14.008Z,3.97
2023-03-10T07:43:40.562Z,2.77
2023-03-10T07:46:08.083Z,2.60
2023-03-10T07:48:34.682Z,2.70
2023-03-10T07:51:01.264Z,2.83
2023-03-10T07:53:27.928Z,2.40
2023-03-10T07:55:54.474Z,2.67
2023-03-10T07:58:21.019Z,2.17
2023-03-10T08:00:53.884Z,2.35
2023-03-10T08:05:47.380Z,2.47
2023-03-10T08:08:13.843Z,1.80
2023-03-10T08:10:40.446Z,2.47
2023-03-10T08:13:06.920Z,1.90
2023-03-10T08:15:33.753Z,2.03
2023-03-10T08:18:04.771Z,2.05
2023-03-10T08:20:32.542Z,2.90
2023-03-10T08:22:59.001Z,2.10
2023-03-10T08:25:25.653Z,2.30
2023-03-10T08:27:52.125Z,1.83
2023-03-10T08:30:18.761Z,2.20
2023-03-10T08:32:45.686Z,2.20
2023-03-10T08:35:12.215Z,2.10
2023-03-10T08:37:38.783Z,2.15
2023-03-10T08:40:08.009Z,1.23
2023-03-10T08:42:36.955Z,1.77
2023-03-10T08:45:03.893Z,1.42
2023-03-10T08:47:32.320Z,1.60
2023-03-10T08:49:58.930Z,2.10
2023-03-10T08:52:25.435Z,2.42
2023-03-10T08:54:52.034Z,1.92
2023-03-10T08:57:18.545Z,1.30
2023-03-10T08:59:45.048Z,1.30
2023-03-10T09:02:13.623Z,2.13
2023-03-10T09:04:40.232Z,1.92
2023-03-10T09:07:06.742Z,2.10
2023-03-10T09:09:33.314Z,1.90
2023-03-10T09:11:59.792Z,2.30
2023-03-10T09:14:26.254Z,2.55
2023-03-10T09:16:52.844Z,2.63
2023-03-10T09:19:19.712Z,3.42
2023-03-10T09:21:47.608Z,2.50
2023-03-10T09:24:14.271Z,2.30
2023-03-10T09:26:43.502Z,2.50
2023-03-10T09:29:11.386Z,2.15
2023-03-10T09:31:39.368Z,2.05
2023-03-10T09:34:06.587Z,2.00
2023-03-10T09:36:33.186Z,2.00
2023-03-10T09:38:59.943Z,1.63
2023-03-10T09:41:42.099Z,1.58
2023-03-10T09:44:43.394Z,1.60
2023-03-10T09:47:09.818Z,1.60
2023-03-10T09:49:44.038Z,1.70
2023-03-10T09:52:49.022Z,1.45
2023-03-10T09:55:22.310Z,1.30
2023-03-10T09:57:53.488Z,1.15
2023-03-10T10:00:25.206Z,0.85
2023-03-10T10:03:12.442Z,0.73
2023-03-10T10:05:39.559Z,0.60
2023-03-10T10:08:13.197Z,0.60
2023-03-10T10:10:39.730Z,0.50
2023-03-10T10:13:15.668Z,0.75
2023-03-10T10:15:45.407Z,2.00
2023-03-10T10:18:43.403Z,0.60
2023-03-10T10:21:13.106Z,0.50
2023-03-10T10:23:54.134Z,1.10
2023-03-10T10:26:22.363Z,2.67
2023-03-10T10:29:14.806Z,0.85
2023-03-10T10:31:41.330Z,0.70
2023-03-10T10:34:28.079Z,0.50
2023-03-10T10:36:56.182Z,0.80
2023-03-10T10:39:28.132Z,0.35
2023-03-10T10:41:54.900Z,0.50
2023-03-10T10:44:21.545Z,0.80
2023-03-10T10:46:55.432Z,0.45
2023-03-10T10:49:26.672Z,0.30
2023-03-10T10:52:23.122Z,0.50
2023-03-10T10:54:57.627Z,0.20
2023-03-10T10:57:35.255Z,0.15
2023-03-10T11:00:25.245Z,0.17
2023-03-10T11:02:51.780Z,0.20
2023-03-10T11:05:24.035Z,0.52
2023-03-10T11:07:50.819Z,0.30
2023-03-10T11:10:19.069Z,0.30
2023-03-10T11:13:00.584Z,0.30
2023-03-10T11:16:06.301Z,0.20
2023-03-10T11:18:46.126Z,0.10
2023-03-10T11:21:18.319Z,0.40
2023-03-10T11:23:49.959Z,0.35
2023-03-10T11:26:24.897Z,0.05
2023-03-10T11:29:00.230Z,0.20
2023-03-10T11:31:55.959Z,0.20
2023-03-10T11:34:30.907Z,0.30
2023-03-10T11:37:24.932Z,0.95
2023-03-10T11:40:15.734Z,0.05
2023-03-10T11:42:55.125Z,0.20
2023-03-10T11:45:26.686Z,0.10
2023-03-10T11:48:10.351Z,0.30
2023-03-10T11:50:54.090Z,0.52
2023-03-10T11:53:44.938Z,0.20
2023-03-10T11:56:14.695Z,0.45
2023-03-10T11:59:01.025Z,0.63
2023-03-10T12:01:34.329Z,0.70
2023-03-10T12:04:22.998Z,0.60
2023-03-10T12:07:00.123Z,0.52
2023-03-10T12:10:14.140Z,0.22
2023-03-10T12:12:47.803Z,0.35
2023-03-10T12:15:36.935Z,0.30
2023-03-10T12:18:04.358Z,0.30
2023-03-10T12:20:32.969Z,0.50
2023-03-10T12:23:11.553Z,0.38
2023-03-10T12:25:38.369Z,0.57
2023-03-10T12:28:17.567Z,0.45
2023-03-10T12:30:47.881Z,0.32
2023-03-10T12:33:34.099Z,0.30
2023-03-10T12:36:05.121Z,0.40
2023-03-10T12:38:39.502Z,0.28
2023-03-10T12:41:06.197Z,0.30
2023-03-10T12:44:12.152Z,0.47
2023-03-10T12:47:07.968Z,0.40
2023-03-10T12:49:40.952Z,0.63
2023-03-10T12:52:12.758Z,0.40
2023-03-10T12:55:04.863Z,0.30
2023-03-10T12:57:39.339Z,0.45
2023-03-10T13:00:25.579Z,0.50
2023-03-10T13:03:10.009Z,0.38
2023-03-10T13:05:41.565Z,0.50
2023-03-10T13:08:18.105Z,0.40
2023-03-10T13:10:44.615Z,0.52
2023-03-10T13:13:14.536Z,0.22
2023-03-10T13:15:41.080Z,0.52
2023-03-10T13:18:19.151Z,0.95
2023-03-10T13:20:46.067Z,0.75
2023-03-10T13:23:27.752Z,0.50
2023-03-10T13:25:55.856Z,1.38
2023-03-10T13:28:23.659Z,1.20
2023-03-10T13:30:50.355Z,0.80
2023-03-10T13:33:24.023Z,0.60
2023-03-10T13:35:52.318Z,1.00
2023-03-10T13:38:24.637Z,1.80
2023-03-10T13:40:57.144Z,0.60
2023-03-10T13:43:30.496Z,0.40
2023-03-10T13:46:00.223Z,0.43
2023-03-10T13:48:27.269Z,1.08
2023-03-10T13:51:17.332Z,0.70
2023-03-10T13:53:44.622Z,0.40
2023-03-10T13:56:21.469Z,0.52
2023-03-10T13:58:48.666Z,0.55
2023-03-10T14:01:21.398Z,0.22
2023-03-10T14:03:52.396Z,0.20
2023-03-10T14:06:19.319Z,0.38
2023-03-10T14:08:45.917Z,0.47
2023-03-10T14:11:24.682Z,0.30
2023-03-10T14:13:51.804Z,0.40
2023-03-10T14:16:18.374Z,0.40
2023-03-10T14:18:44.883Z,0.47
2023-03-10T14:21:32.369Z,0.30
2023-03-10T14:24:06.413Z,0.30
2023-03-10T14:26:32.996Z,1.25
2023-03-10T14:29:05.898Z,0.90
2023-03-10T14:31:32.391Z,0.40
2023-03-10T14:33:58.932Z,0.30
2023-03-10T14:36:25.626Z,0.20
2023-03-10T14:38:52.127Z,0.80
2023-03-10T14:41:19.169Z,0.75
2023-03-10T14:43:45.764Z,0.70
2023-03-10T14:46:13.173Z,0.15
2023-03-10T14:48:41.785Z,1.30
2023-03-10T14:51:14.504Z,2.38
2023-03-10T14:53:44.573Z,0.63
2023-03-10T14:56:16.246Z,0.90
2023-03-10T14:58:52.719Z,0.30
2023-03-10T15:01:19.861Z,0.30
2023-03-10T15:03:46.584Z,0.30
2023-03-10T15:06:13.526Z,0.20
2023-03-10T15:08:40.433Z,0.30
2023-03-10T15:11:07.024Z,0.20
2023-03-10T15:13:33.611Z,0.20
2023-03-10T15:16:00.190Z,0.10
2023-03-10T15:18:27.148Z,0.35
2023-03-10T15:20:59.090Z,0.20
2023-03-10T15:23:26.869Z,0.35
2023-03-10T15:25:54.321Z,0.28
2023-03-10T15:28:21.032Z,0.40
2023-03-10T15:30:47.759Z,0.25
2023-03-10T15:33:14.531Z,0.20
2023-03-10T15:35:41.259Z,0.30
2023-03-10T15:38:07.938Z,0.20
2023-03-10T15:40:34.722Z,0.38
2023-03-10T15:43:01.406Z,0.25
2023-03-10T15:45:29.362Z,0.40
2023-03-10T15:47:56.262Z,0.80
2023-03-10T15:50:22.986Z,0.40
2023-03-10T15:52:51.046Z,0.90
2023-03-10T15:55:17.626Z,0.40
2023-03-10T15:57:44.585Z,0.30
2023-03-10T16:00:12.453Z,0.28
2023-03-10T16:02:39.004Z,0.20
2023-03-10T16:05:06.092Z,0.40
2023-03-10T16:07:33.595Z,0.70
2023-03-10T16:10:00.046Z,0.77
2023-03-10T16:12:26.799Z,0.35
2023-03-10T16:14:55.247Z,0.38
2023-03-10T16:17:22.667Z,0.47
2023-03-10T16:19:49.234Z,0.50
2023-03-10T16:22:15.913Z,0.40
2023-03-10T16:24:42.866Z,0.22
2023-03-10T16:27:09.444Z,0.70
2023-03-10T16:29:35.933Z,0.40
2023-03-10T16:32:02.640Z,0.35
2023-03-10T16:34:29.249Z,0.75
2023-03-10T16:36:55.809Z,0.82
2023-03-10T16:39:24.251Z,0.30
2023-03-10T16:41:50.736Z,0.50
2023-03-10T16:44:17.189Z,0.82
2023-03-10T16:46:43.757Z,1.55
2023-03-10T16:49:13.173Z,0.30
2023-03-10T16:51:40.118Z,0.50
2023-03-10T16:54:07.370Z,0.90
2023-03-10T16:56:38.744Z,0.50
2023-03-10T16:59:05.495Z,0.20
2023-03-10T17:01:32.102Z,1.60
2023-03-10T17:03:59.028Z,2.85
2023-03-10T17:06:30.371Z,0.90
2023-03-10T17:08:57.099Z,1.40
2023-03-10T17:11:24.946Z,1.35
2023-03-10T17:13:53.202Z,0.70
2023-03-10T17:16:20.365Z,1.70
2023-03-10T17:18:47.046Z,0.80
2023-03-10T17:21:19.223Z,0.77
2023-03-10T17:23:45.982Z,0.80
2023-03-10T17:26:12.763Z,1.60
2023-03-10T17:28:39.586Z,0.25
2023-03-10T17:31:10.736Z,1.15
2023-03-10T17:33:37.379Z,0.70
2023-03-10T17:36:08.330Z,0.45
2023-03-10T17:38:35.004Z,0.57
2023-03-10T17:41:08.978Z,0.50
2023-03-10T17:43:35.627Z,0.60
2023-03-10T17:46:04.583Z,0.40
2023-03-10T17:48:31.274Z,0.28
2023-03-10T17:50:58.294Z,1.95
2023-03-10T17:53:25.467Z,1.55
2023-03-10T17:55:52.104Z,1.83
2023-03-10T17:58:18.652Z,0.70
2023-03-10T18:00:45.320Z,0.70
2023-03-10T18:03:12.129Z,0.60
2023-03-10T18:05:40.307Z,0.95
2023-03-10T18:08:07.094Z,1.38
2023-03-10T18:10:38.365Z,0.45
2023-03-10T18:13:06.741Z,0.98
2023-03-10T18:15:33.323Z,0.40
2023-03-10T18:17:59.948Z,0.68
2023-03-10T18:20:26.803Z,0.85
2023-03-10T18:22:53.304Z,4.15
2023-03-10T18:25:20.109Z,2.35
2023-03-10T18:27:46.631Z,2.90
2023-03-10T18:30:13.746Z,2.78
2023-03-10T18:32:40.415Z,5.97
2023-03-10T18:35:07.651Z,0.40
2023-03-10T18:37:34.185Z,0.45
2023-03-10T18:40:00.865Z,0.70
2023-03-10T18:42:27.771Z,0.70
2023-03-10T18:44:54.615Z,1.10
2023-03-10T18:47:21.520Z,0.68
2023-03-10T18:49:48.253Z,1.30
2023-03-10T18:52:16.172Z,0.55
2023-03-10T18:54:43.510Z,0.70
2023-03-10T18:57:10.772Z,1.00
2023-03-10T18:59:37.334Z,0.88
2023-03-10T19:02:04.433Z,0.70
2023-03-10T19:04:31.059Z,1.23
2023-03-10T19:06:57.557Z,0.60
2023-03-10T19:09:24.529Z,0.90
2023-03-10T19:11:53.298Z,0.70
2023-03-10T19:14:19.806Z,0.98
2023-03-10T19:16:48.680Z,1.10
2023-03-10T19:19:15.154Z,1.20
2023-03-10T19:21:41.678Z,1.40
2023-03-10T19:24:08.246Z,0.65
2023-03-10T19:26:34.738Z,0.70
2023-03-10T19:29:01.227Z,0.52
2023-03-10T19:31:27.815Z,0.50
2023-03-10T19:33:54.398Z,0.30
2023-03-10T19:36:20.937Z,0.32
2023-03-10T19:38:47.448Z,0.75
2023-03-10T19:41:17.161Z,0.50
2023-03-10T19:43:44.547Z,0.60
2023-03-10T19:46:11.723Z,1.38
2023-03-10T19:48:38.615Z,0.70
2023-03-10T19:51:05.716Z,0.85
2023-03-10T19:53:32.525Z,0.73
2023-03-10T19:56:00.347Z,0.60
2023-03-10T19:58:27.039Z,0.68
2023-03-10T20:00:57.743Z,0.90
2023-03-10T20:03:28.613Z,0.70
2023-03-10T20:05:55.329Z,0.60
2023-03-10T20:08:22.039Z,0.52
2023-03-10T20:10:48.513Z,1.50
2023-03-10T20:13:14.990Z,0.82
2023-03-10T20:15:41.641Z,1.42
2023-03-10T20:18:08.177Z,0.45
2023-03-10T20:20:34.678Z,0.75
2023-03-10T20:23:01.685Z,0.82
2023-03-10T20:25:28.184Z,1.05
2023-03-10T20:27:54.750Z,0.73
2023-03-10T20:30:29.450Z,0.90
2023-03-10T20:32:56.116Z,0.70
2023-03-10T20:35:22.947Z,0.93
2023-03-10T20:37:49.506Z,0.77
2023-03-10T20:40:19.377Z,1.02
2023-03-10T20:42:45.847Z,0.70
2023-03-10T20:45:12.659Z,1.27
2023-03-10T20:47:39.197Z,0.95
2023-03-10T20:50:06.423Z,0.90
2023-03-10T20:52:34.872Z,1.05
2023-03-10T20:55:01.997Z,0.82
2023-03-10T20:57:28.484Z,0.70
2023-03-10T20:59:55.917Z,1.08
2023-03-10T21:02:22.391Z,0.80
2023-03-10T21:04:49.383Z,1.00
2023-03-10T21:07:15.930Z,1.52
2023-03-10T21:09:42.423Z,1.98
2023-03-10T21:12:08.963Z,0.85
2023-03-10T21:14:35.452Z,2.28
2023-03-10T21:17:03.021Z,3.08
2023-03-10T21:19:29.599Z,1.10
2023-03-10T21:21:56.129Z,1.30
2023-03-10T21:24:22.608Z,1.08
2023-03-10T21:26:49.095Z,0.80
2023-03-10T21:29:16.110Z,1.10
2023-03-10T21:31:42.657Z,0.80
2023-03-10T21:34:09.117Z,0.88
2023-03-10T21:36:35.666Z,0.85
2023-03-10T21:39:02.881Z,0.57
2023-03-10T21:41:29.943Z,0.50
2023-03-10T21:43:57.599Z,0.82
2023-03-10T21:46:24.342Z,0.77
2023-03-10T21:48:52.214Z,0.50
2023-03-10T21:51:20.105Z,0.70
2023-03-10T21:53:46.745Z,0.88
2023-03-10T21:56:13.295Z,0.90
2023-03-10T21:58:40.073Z,0.47
2023-03-10T22:01:07.072Z,1.08
2023-03-10T22:03:34.195Z,1.35
2023-03-10T22:06:01.347Z,0.75
2023-03-10T22:08:27.832Z,0.60
2023-03-10T22:10:54.296Z,0.70
2023-03-10T22:13:20.815Z,0.70
2023-03-10T22:15:47.391Z,0.80
2023-03-10T22:18:14.259Z,0.60
2023-03-10T22:20:40.815Z,0.63
2023-03-10T22:23:07.827Z,0.70
2023-03-10T22:25:34.774Z,0.70
2023-03-10T22:28:01.400Z,0.65
2023-03-10T22:30:28.724Z,0.75
2023-03-10T22:32:55.403Z,0.43
2023-03-10T22:35:22.319Z,0.93
2023-03-10T22:37:48.772Z,0.80
2023-03-10T22:40:16.881Z,0.73
2023-03-10T22:42:43.780Z,0.90
2023-03-10T22:45:20.775Z,0.80
2023-03-10T22:47:47.435Z,0.60
2023-03-10T22:50:21.982Z,0.90
2023-03-10T22:52:48.608Z,0.50
2023-03-10T22:55:16.144Z,0.60
2023-03-10T22:57:42.709Z,0.77
2023-03-10T23:00:14.100Z,0.80
2023-03-10T23:02:41.247Z,0.90
2023-03-10T23:05:08.177Z,1.00
2023-03-10T23:07:34.745Z,0.68
2023-03-10T23:10:02.033Z,0.77
2023-03-10T23:12:28.554Z,0.60
2023-03-10T23:14:55.054Z,0.80
2023-03-10T23:17:21.524Z,0.40
2023-03-10T23:19:51.162Z,0.68
2023-03-10T23:22:17.942Z,0.60
2023-03-10T23:24:44.402Z,0.52
2023-03-10T23:27:11.161Z,0.60
2023-03-10T23:29:37.705Z,0.60
2023-03-10T23:32:04.292Z,0.45
2023-03-10T23:34:30.762Z,0.57
2023-03-10T23:36:58.505Z,0.45
2023-03-10T23:39:25.501Z,0.50
2023-03-10T23:41:51.970Z,0.47
2023-03-10T23:44:21.024Z,0.60
2023-03-10T23:46:53.894Z,0.40
2023-03-10T23:51:52.398Z,0.68
2023-03-10T23:54:22.445Z,0.60
2023-03-10T23:56:50.095Z,0.77
2023-03-10T23:59:16.588Z,0.47
